Allensburg, Ohio
Current Conditions -  °F | °C
As of 4:54 PM on Thursday 23 Oct 2014 (Local Time) from KILN Reporting Station
Clear Clear  
Wind Chill: 59°   Ceiling: Unl
Heat Index: 59°   Visibility: 10mi
Dew Point: 39°   Wind: 5mph
Humidity: 48%   Direction: 280°W
Pressure: 30.13"   Gusts: NA
Location:  39.1546°N, 83.569°W
Report Text: KILN 232054Z AUTO 28004KT 10SM CLR 15/04 A3013 RMK AO2 SLP213 T01500039 56020
Loading
Personal Weather Stations






























Interactive Weather Map New forecast layout! Learn more

10-Day Weather Forecast

Advertisements
Track Severe Weather on mobile